sensor_id;sensor_type;location;lat;lon;timestamp;temperature;humidity
13982;DHT22;7065;50.880;5.502;2023-05-27T00:01:33;10.70;99.90
13982;DHT22;7065;50.880;5.502;2023-05-27T00:03:58;10.70;99.90
13982;DHT22;7065;50.880;5.502;2023-05-27T00:06:24;10.70;99.90
13982;DHT22;7065;50.880;5.502;2023-05-27T00:08:50;10.70;99.90
13982;DHT22;7065;50.880;5.502;2023-05-27T00:11:15;10.60;99.90
13982;DHT22;7065;50.880;5.502;2023-05-27T00:13:41;10.60;99.90
13982;DHT22;7065;50.880;5.502;2023-05-27T00:16:07;10.60;99.90
13982;DHT22;7065;50.880;5.502;2023-05-27T00:18:33;10.50;99.90
13982;DHT22;7065;50.880;5.502;2023-05-27T00:21:01;10.50;99.90
13982;DHT22;7065;50.880;5.502;2023-05-27T00:23:27;10.50;99.90
13982;DHT22;7065;50.880;5.502;2023-05-27T00:25:52;10.40;99.90
13982;DHT22;7065;50.880;5.502;2023-05-27T00:28:18;10.40;99.90
13982;DHT22;7065;50.880;5.502;2023-05-27T00:30:44;10.30;99.90
13982;DHT22;7065;50.880;5.502;2023-05-27T00:33:09;10.30;99.90
13982;DHT22;7065;50.880;5.502;2023-05-27T00:35:35;10.30;99.90
13982;DHT22;7065;50.880;5.502;2023-05-27T00:38:01;10.20;99.90
13982;DHT22;7065;50.880;5.502;2023-05-27T00:40:29;10.20;99.90
13982;DHT22;7065;50.880;5.502;2023-05-27T00:42:56;10.20;99.90
13982;DHT22;7065;50.880;5.502;2023-05-27T00:45:22;10.20;99.90
13982;DHT22;7065;50.880;5.502;2023-05-27T00:47:48;10.20;99.90
13982;DHT22;7065;50.880;5.502;2023-05-27T00:50:14;10.10;99.90
13982;DHT22;7065;50.880;5.502;2023-05-27T00:52:40;10.10;99.90
13982;DHT22;7065;50.880;5.502;2023-05-27T00:55:08;10.10;99.90
13982;DHT22;7065;50.880;5.502;2023-05-27T00:57:34;10.10;99.90
13982;DHT22;7065;50.880;5.502;2023-05-27T01:00:00;10.00;99.90
13982;DHT22;7065;50.880;5.502;2023-05-27T01:02:25;10.00;99.90
13982;DHT22;7065;50.880;5.502;2023-05-27T01:04:51;10.00;99.90
13982;DHT22;7065;50.880;5.502;2023-05-27T01:13:41;9.90;99.90
13982;DHT22;7065;50.880;5.502;2023-05-27T01:16:13;9.80;99.90
13982;DHT22;7065;50.880;5.502;2023-05-27T01:18:40;9.80;99.90
13982;DHT22;7065;50.880;5.502;2023-05-27T01:21:15;9.80;99.90
13982;DHT22;7065;50.880;5.502;2023-05-27T01:23:42;9.80;99.90
13982;DHT22;7065;50.880;5.502;2023-05-27T01:26:08;9.80;99.90
13982;DHT22;7065;50.880;5.502;2023-05-27T01:28:35;9.80;99.90
13982;DHT22;7065;50.880;5.502;2023-05-27T01:31:15;9.80;99.90
13982;DHT22;7065;50.880;5.502;2023-05-27T01:33:44;9.70;99.90
13982;DHT22;7065;50.880;5.502;2023-05-27T01:36:16;9.70;99.90
13982;DHT22;7065;50.880;5.502;2023-05-27T01:38:43;9.60;99.90
13982;DHT22;7065;50.880;5.502;2023-05-27T01:41:10;9.70;99.90
13982;DHT22;7065;50.880;5.502;2023-05-27T01:43:38;9.70;99.90
13982;DHT22;7065;50.880;5.502;2023-05-27T01:46:04;9.60;99.90
13982;DHT22;7065;50.880;5.502;2023-05-27T01:48:30;9.60;99.90
13982;DHT22;7065;50.880;5.502;2023-05-27T01:50:56;9.60;99.90
13982;DHT22;7065;50.880;5.502;2023-05-27T01:53:21;9.60;99.90
13982;DHT22;7065;50.880;5.502;2023-05-27T01:55:47;9.60;99.90
13982;DHT22;7065;50.880;5.502;2023-05-27T01:58:13;9.50;99.90
13982;DHT22;7065;50.880;5.502;2023-05-27T02:00:39;9.50;99.90
13982;DHT22;7065;50.880;5.502;2023-05-27T02:03:05;9.50;99.90
13982;DHT22;7065;50.880;5.502;2023-05-27T02:05:32;9.50;99.90
13982;DHT22;7065;50.880;5.502;2023-05-27T02:07:57;9.50;99.90
13982;DHT22;7065;50.880;5.502;2023-05-27T02:10:23;9.50;99.90
13982;DHT22;7065;50.880;5.502;2023-05-27T02:12:49;9.40;99.90
13982;DHT22;7065;50.880;5.502;2023-05-27T02:15:15;9.40;99.90
13982;DHT22;7065;50.880;5.502;2023-05-27T02:17:41;9.40;99.90
13982;DHT22;7065;50.880;5.502;2023-05-27T02:20:10;9.40;99.90
13982;DHT22;7065;50.880;5.502;2023-05-27T02:22:36;9.30;99.90
13982;DHT22;7065;50.880;5.502;2023-05-27T02:25:03;9.40;99.90
13982;DHT22;7065;50.880;5.502;2023-05-27T02:27:29;9.40;99.90
13982;DHT22;7065;50.880;5.502;2023-05-27T02:29:55;9.30;99.90
13982;DHT22;7065;50.880;5.502;2023-05-27T02:32:20;9.30;99.90
13982;DHT22;7065;50.880;5.502;2023-05-27T02:34:46;9.30;99.90
13982;DHT22;7065;50.880;5.502;2023-05-27T02:37:12;9.30;99.90
13982;DHT22;7065;50.880;5.502;2023-05-27T02:39:39;9.30;99.90
13982;DHT22;7065;50.880;5.502;2023-05-27T02:42:06;9.30;99.90
13982;DHT22;7065;50.880;5.502;2023-05-27T02:44:31;9.30;99.90
13982;DHT22;7065;50.880;5.502;2023-05-27T02:46:57;9.30;99.90
13982;DHT22;7065;50.880;5.502;2023-05-27T02:49:23;9.20;99.90
13982;DHT22;7065;50.880;5.502;2023-05-27T02:51:48;9.20;99.90
13982;DHT22;7065;50.880;5.502;2023-05-27T02:54:14;9.20;99.90
13982;DHT22;7065;50.880;5.502;2023-05-27T02:56:40;9.20;99.90
13982;DHT22;7065;50.880;5.502;2023-05-27T02:59:06;9.20;99.90
13982;DHT22;7065;50.880;5.502;2023-05-27T03:01:32;9.10;99.90
13982;DHT22;7065;50.880;5.502;2023-05-27T03:03:57;9.10;99.90
13982;DHT22;7065;50.880;5.502;2023-05-27T03:06:23;9.10;99.90
13982;DHT22;7065;50.880;5.502;2023-05-27T03:08:49;9.10;99.90
13982;DHT22;7065;50.880;5.502;2023-05-27T03:11:14;9.10;99.90
13982;DHT22;7065;50.880;5.502;2023-05-27T03:13:40;9.00;99.90
13982;DHT22;7065;50.880;5.502;2023-05-27T03:16:06;9.00;99.90
13982;DHT22;7065;50.880;5.502;2023-05-27T03:18:32;9.00;99.90
13982;DHT22;7065;50.880;5.502;2023-05-27T03:20:57;8.90;99.90
13982;DHT22;7065;50.880;5.502;2023-05-27T03:23:23;8.90;99.90
13982;DHT22;7065;50.880;5.502;2023-05-27T03:25:49;8.90;99.90
13982;DHT22;7065;50.880;5.502;2023-05-27T03:28:15;8.90;99.90
13982;DHT22;7065;50.880;5.502;2023-05-27T03:30:41;8.90;99.90
13982;DHT22;7065;50.880;5.502;2023-05-27T03:33:09;8.90;99.90
13982;DHT22;7065;50.880;5.502;2023-05-27T03:35:35;8.80;99.90
13982;DHT22;7065;50.880;5.502;2023-05-27T03:38:01;8.80;99.90
13982;DHT22;7065;50.880;5.502;2023-05-27T03:40:27;8.80;99.90
13982;DHT22;7065;50.880;5.502;2023-05-27T03:42:53;8.80;99.90
13982;DHT22;7065;50.880;5.502;2023-05-27T03:45:19;8.80;99.90
13982;DHT22;7065;50.880;5.502;2023-05-27T03:47:45;8.70;99.90
13982;DHT22;7065;50.880;5.502;2023-05-27T03:50:11;8.70;99.90
13982;DHT22;7065;50.880;5.502;2023-05-27T03:52:36;8.70;99.90
13982;DHT22;7065;50.880;5.502;2023-05-27T03:55:03;8.70;99.90
13982;DHT22;7065;50.880;5.502;2023-05-27T03:57:30;8.60;99.90
13982;DHT22;7065;50.880;5.502;2023-05-27T03:59:56;8.70;99.90
13982;DHT22;7065;50.880;5.502;2023-05-27T04:02:21;8.60;99.90
13982;DHT22;7065;50.880;5.502;2023-05-27T04:04:47;8.60;99.90
13982;DHT22;7065;50.880;5.502;2023-05-27T04:07:13;8.60;99.90
13982;DHT22;7065;50.880;5.502;2023-05-27T04:09:38;8.60;99.90
13982;DHT22;7065;50.880;5.502;2023-05-27T04:12:05;8.60;99.90
13982;DHT22;7065;50.880;5.502;2023-05-27T04:14:32;8.60;99.90
13982;DHT22;7065;50.880;5.502;2023-05-27T04:16:58;8.60;99.90
13982;DHT22;7065;50.880;5.502;2023-05-27T04:19:23;8.60;99.90
13982;DHT22;7065;50.880;5.502;2023-05-27T04:21:49;8.60;99.90
13982;DHT22;7065;50.880;5.502;2023-05-27T04:24:15;8.60;99.90
13982;DHT22;7065;50.880;5.502;2023-05-27T04:26:40;8.60;99.90
13982;DHT22;7065;50.880;5.502;2023-05-27T04:29:06;8.60;99.90
13982;DHT22;7065;50.880;5.502;2023-05-27T04:31:34;8.60;99.90
13982;DHT22;7065;50.880;5.502;2023-05-27T04:34:02;8.60;99.90
13982;DHT22;7065;50.880;5.502;2023-05-27T04:36:28;8.60;99.90
13982;DHT22;7065;50.880;5.502;2023-05-27T04:38:59;8.70;99.90
13982;DHT22;7065;50.880;5.502;2023-05-27T04:41:27;8.70;99.90
13982;DHT22;7065;50.880;5.502;2023-05-27T04:43:54;8.70;99.90
13982;DHT22;7065;50.880;5.502;2023-05-27T04:46:22;8.70;99.90
13982;DHT22;7065;50.880;5.502;2023-05-27T04:48:49;8.80;99.90
13982;DHT22;7065;50.880;5.502;2023-05-27T04:51:16;8.80;99.90
13982;DHT22;7065;50.880;5.502;2023-05-27T04:53:43;8.80;99.90
13982;DHT22;7065;50.880;5.502;2023-05-27T04:56:09;8.90;99.90
13982;DHT22;7065;50.880;5.502;2023-05-27T04:58:36;8.90;99.90
13982;DHT22;7065;50.880;5.502;2023-05-27T05:01:02;8.90;99.90
13982;DHT22;7065;50.880;5.502;2023-05-27T05:03:27;8.90;99.90
13982;DHT22;7065;50.880;5.502;2023-05-27T05:06:04;9.00;99.90
13982;DHT22;7065;50.880;5.502;2023-05-27T05:08:30;9.00;99.90
13982;DHT22;7065;50.880;5.502;2023-05-27T05:10:57;9.10;99.90
13982;DHT22;7065;50.880;5.502;2023-05-27T05:13:22;9.10;99.90
13982;DHT22;7065;50.880;5.502;2023-05-27T05:15:48;9.10;99.90
13982;DHT22;7065;50.880;5.502;2023-05-27T05:18:14;9.20;99.90
13982;DHT22;7065;50.880;5.502;2023-05-27T05:20:40;9.20;99.90
13982;DHT22;7065;50.880;5.502;2023-05-27T05:23:07;9.30;99.90
13982;DHT22;7065;50.880;5.502;2023-05-27T05:25:33;9.30;99.90
13982;DHT22;7065;50.880;5.502;2023-05-27T05:28:06;9.30;99.90
13982;DHT22;7065;50.880;5.502;2023-05-27T05:30:32;9.30;99.90
13982;DHT22;7065;50.880;5.502;2023-05-27T05:32:59;9.40;99.90
13982;DHT22;7065;50.880;5.502;2023-05-27T05:35:25;9.40;99.90
13982;DHT22;7065;50.880;5.502;2023-05-27T05:37:51;9.40;99.90
13982;DHT22;7065;50.880;5.502;2023-05-27T05:40:17;9.50;99.90
13982;DHT22;7065;50.880;5.502;2023-05-27T05:42:43;9.60;99.90
13982;DHT22;7065;50.880;5.502;2023-05-27T05:45:08;9.60;99.90
13982;DHT22;7065;50.880;5.502;2023-05-27T05:47:34;9.60;99.90
13982;DHT22;7065;50.880;5.502;2023-05-27T05:50:00;9.70;99.90
13982;DHT22;7065;50.880;5.502;2023-05-27T05:52:25;9.70;99.90
13982;DHT22;7065;50.880;5.502;2023-05-27T05:54:51;9.80;99.90
13982;DHT22;7065;50.880;5.502;2023-05-27T05:57:17;9.90;99.90
13982;DHT22;7065;50.880;5.502;2023-05-27T05:59:43;9.90;99.90
13982;DHT22;7065;50.880;5.502;2023-05-27T06:02:09;9.90;99.90
13982;DHT22;7065;50.880;5.502;2023-05-27T06:04:34;10.00;99.90
13982;DHT22;7065;50.880;5.502;2023-05-27T06:07:00;10.10;99.90
13982;DHT22;7065;50.880;5.502;2023-05-27T06:09:26;10.10;99.90
13982;DHT22;7065;50.880;5.502;2023-05-27T06:11:51;10.20;99.90
13982;DHT22;7065;50.880;5.502;2023-05-27T06:14:17;10.20;99.90
13982;DHT22;7065;50.880;5.502;2023-05-27T06:16:44;10.20;99.90
13982;DHT22;7065;50.880;5.502;2023-05-27T06:19:09;10.30;99.90
13982;DHT22;7065;50.880;5.502;2023-05-27T06:21:36;10.30;99.90
13982;DHT22;7065;50.880;5.502;2023-05-27T06:24:02;10.40;99.90
13982;DHT22;7065;50.880;5.502;2023-05-27T06:26:28;10.40;99.90
13982;DHT22;7065;50.880;5.502;2023-05-27T06:28:53;10.50;99.90
13982;DHT22;7065;50.880;5.502;2023-05-27T06:31:19;10.60;99.90
13982;DHT22;7065;50.880;5.502;2023-05-27T06:33:45;10.60;99.90
13982;DHT22;7065;50.880;5.502;2023-05-27T06:36:11;10.70;99.90
13982;DHT22;7065;50.880;5.502;2023-05-27T06:38:37;10.70;99.90
13982;DHT22;7065;50.880;5.502;2023-05-27T06:41:02;10.80;99.90
13982;DHT22;7065;50.880;5.502;2023-05-27T06:43:28;10.90;99.90
13982;DHT22;7065;50.880;5.502;2023-05-27T06:45:54;10.90;99.90
13982;DHT22;7065;50.880;5.502;2023-05-27T06:48:19;11.00;99.90
13982;DHT22;7065;50.880;5.502;2023-05-27T06:50:45;11.10;99.90
13982;DHT22;7065;50.880;5.502;2023-05-27T06:53:11;11.10;99.90
13982;DHT22;7065;50.880;5.502;2023-05-27T06:55:39;11.20;99.90
13982;DHT22;7065;50.880;5.502;2023-05-27T06:58:05;11.30;99.90
13982;DHT22;7065;50.880;5.502;2023-05-27T07:00:32;11.30;99.90
13982;DHT22;7065;50.880;5.502;2023-05-27T07:02:57;11.40;99.90
13982;DHT22;7065;50.880;5.502;2023-05-27T07:05:25;11.40;99.90
13982;DHT22;7065;50.880;5.502;2023-05-27T07:07:51;11.50;99.90
13982;DHT22;7065;50.880;5.502;2023-05-27T07:10:17;11.60;99.90
13982;DHT22;7065;50.880;5.502;2023-05-27T07:12:42;11.60;99.90
13982;DHT22;7065;50.880;5.502;2023-05-27T07:15:08;11.70;99.90
13982;DHT22;7065;50.880;5.502;2023-05-27T07:17:34;11.80;99.90
13982;DHT22;7065;50.880;5.502;2023-05-27T07:20:00;11.90;99.90
13982;DHT22;7065;50.880;5.502;2023-05-27T07:22:26;12.00;99.90
13982;DHT22;7065;50.880;5.502;2023-05-27T07:24:52;12.00;99.90
13982;DHT22;7065;50.880;5.502;2023-05-27T07:27:17;12.10;99.90
13982;DHT22;7065;50.880;5.502;2023-05-27T07:29:43;12.20;99.90
13982;DHT22;7065;50.880;5.502;2023-05-27T07:32:09;12.20;99.90
13982;DHT22;7065;50.880;5.502;2023-05-27T07:34:35;12.30;99.90
13982;DHT22;7065;50.880;5.502;2023-05-27T07:37:01;12.40;99.90
13982;DHT22;7065;50.880;5.502;2023-05-27T07:39:26;12.50;99.90
13982;DHT22;7065;50.880;5.502;2023-05-27T07:41:52;12.50;99.90
13982;DHT22;7065;50.880;5.502;2023-05-27T07:44:18;12.60;99.90
13982;DHT22;7065;50.880;5.502;2023-05-27T07:46:44;12.70;99.90
13982;DHT22;7065;50.880;5.502;2023-05-27T07:49:10;12.80;99.90
13982;DHT22;7065;50.880;5.502;2023-05-27T07:51:36;12.90;99.90
13982;DHT22;7065;50.880;5.502;2023-05-27T07:54:02;12.90;99.90
13982;DHT22;7065;50.880;5.502;2023-05-27T07:56:27;13.00;99.90
13982;DHT22;7065;50.880;5.502;2023-05-27T07:58:54;13.10;99.90
13982;DHT22;7065;50.880;5.502;2023-05-27T08:01:20;13.20;99.90
13982;DHT22;7065;50.880;5.502;2023-05-27T08:03:45;13.30;99.90
13982;DHT22;7065;50.880;5.502;2023-05-27T08:06:11;13.30;99.90
13982;DHT22;7065;50.880;5.502;2023-05-27T08:08:37;13.40;99.90
13982;DHT22;7065;50.880;5.502;2023-05-27T08:11:03;13.50;99.90
13982;DHT22;7065;50.880;5.502;2023-05-27T08:13:28;13.50;99.90
13982;DHT22;7065;50.880;5.502;2023-05-27T08:15:55;13.60;99.90
13982;DHT22;7065;50.880;5.502;2023-05-27T08:18:22;13.60;99.90
13982;DHT22;7065;50.880;5.502;2023-05-27T08:20:47;13.70;99.90
13982;DHT22;7065;50.880;5.502;2023-05-27T08:23:14;13.70;99.90
13982;DHT22;7065;50.880;5.502;2023-05-27T08:25:40;13.80;99.90
13982;DHT22;7065;50.880;5.502;2023-05-27T08:28:06;13.90;99.90
13982;DHT22;7065;50.880;5.502;2023-05-27T08:30:32;14.00;99.90
13982;DHT22;7065;50.880;5.502;2023-05-27T08:32:58;14.10;99.90
13982;DHT22;7065;50.880;5.502;2023-05-27T08:35:24;14.20;99.90
13982;DHT22;7065;50.880;5.502;2023-05-27T08:37:50;14.40;99.90
13982;DHT22;7065;50.880;5.502;2023-05-27T08:40:17;14.50;99.90
13982;DHT22;7065;50.880;5.502;2023-05-27T08:42:43;14.60;99.90
13982;DHT22;7065;50.880;5.502;2023-05-27T08:45:10;14.70;99.90
13982;DHT22;7065;50.880;5.502;2023-05-27T08:47:38;14.70;99.90
13982;DHT22;7065;50.880;5.502;2023-05-27T08:50:04;14.70;99.90
13982;DHT22;7065;50.880;5.502;2023-05-27T08:52:33;14.70;99.90
13982;DHT22;7065;50.880;5.502;2023-05-27T08:55:01;14.70;99.90
13982;DHT22;7065;50.880;5.502;2023-05-27T08:57:29;14.90;99.90
13982;DHT22;7065;50.880;5.502;2023-05-27T08:59:58;15.10;99.90
13982;DHT22;7065;50.880;5.502;2023-05-27T09:02:24;15.20;99.90
13982;DHT22;7065;50.880;5.502;2023-05-27T09:04:50;15.20;99.90
13982;DHT22;7065;50.880;5.502;2023-05-27T09:07:17;15.30;99.90
13982;DHT22;7065;50.880;5.502;2023-05-27T09:09:55;15.50;99.90
13982;DHT22;7065;50.880;5.502;2023-05-27T09:12:23;15.50;99.90
13982;DHT22;7065;50.880;5.502;2023-05-27T09:14:50;15.60;99.90
13982;DHT22;7065;50.880;5.502;2023-05-27T09:17:17;15.70;99.90
13982;DHT22;7065;50.880;5.502;2023-05-27T09:19:44;15.70;99.90
13982;DHT22;7065;50.880;5.502;2023-05-27T09:22:21;15.90;99.90
13982;DHT22;7065;50.880;5.502;2023-05-27T09:24:48;16.10;99.90
13982;DHT22;7065;50.880;5.502;2023-05-27T09:27:14;16.20;99.90
13982;DHT22;7065;50.880;5.502;2023-05-27T09:29:40;16.30;99.90
13982;DHT22;7065;50.880;5.502;2023-05-27T09:32:06;16.30;99.90
13982;DHT22;7065;50.880;5.502;2023-05-27T09:34:40;16.30;99.90
13982;DHT22;7065;50.880;5.502;2023-05-27T09:37:12;16.50;99.90
13982;DHT22;7065;50.880;5.502;2023-05-27T09:39:40;16.70;99.90
13982;DHT22;7065;50.880;5.502;2023-05-27T09:42:06;16.70;99.90
13982;DHT22;7065;50.880;5.502;2023-05-27T09:44:35;16.80;99.90
13982;DHT22;7065;50.880;5.502;2023-05-27T09:47:07;16.90;99.90
13982;DHT22;7065;50.880;5.502;2023-05-27T09:49:38;17.00;99.90
13982;DHT22;7065;50.880;5.502;2023-05-27T09:52:05;17.20;99.90
13982;DHT22;7065;50.880;5.502;2023-05-27T09:54:33;17.30;99.90
13982;DHT22;7065;50.880;5.502;2023-05-27T09:57:02;17.50;99.90
13982;DHT22;7065;50.880;5.502;2023-05-27T09:59:28;17.50;99.90
13982;DHT22;7065;50.880;5.502;2023-05-27T10:01:54;17.60;99.90
13982;DHT22;7065;50.880;5.502;2023-05-27T10:04:22;17.60;99.90
13982;DHT22;7065;50.880;5.502;2023-05-27T10:06:48;17.60;99.90
13982;DHT22;7065;50.880;5.502;2023-05-27T10:09:15;17.80;99.90
13982;DHT22;7065;50.880;5.502;2023-05-27T10:11:43;17.90;99.90
13982;DHT22;7065;50.880;5.502;2023-05-27T10:14:10;18.00;99.90
13982;DHT22;7065;50.880;5.502;2023-05-27T10:16:37;18.10;99.90
13982;DHT22;7065;50.880;5.502;2023-05-27T10:19:10;18.10;99.90
13982;DHT22;7065;50.880;5.502;2023-05-27T10:21:42;18.10;99.90
13982;DHT22;7065;50.880;5.502;2023-05-27T10:24:10;18.20;99.90
13982;DHT22;7065;50.880;5.502;2023-05-27T10:26:40;18.20;99.90
13982;DHT22;7065;50.880;5.502;2023-05-27T10:31:43;18.10;99.90
13982;DHT22;7065;50.880;5.502;2023-05-27T10:34:09;18.00;99.90
13982;DHT22;7065;50.880;5.502;2023-05-27T10:36:35;18.00;99.90
13982;DHT22;7065;50.880;5.502;2023-05-27T10:39:18;18.00;99.90
13982;DHT22;7065;50.880;5.502;2023-05-27T10:41:55;18.00;99.90
13982;DHT22;7065;50.880;5.502;2023-05-27T10:44:33;18.10;99.90
13982;DHT22;7065;50.880;5.502;2023-05-27T10:47:10;18.10;99.90
13982;DHT22;7065;50.880;5.502;2023-05-27T10:49:50;18.30;99.90
13982;DHT22;7065;50.880;5.502;2023-05-27T10:52:17;18.50;99.90
13982;DHT22;7065;50.880;5.502;2023-05-27T10:54:45;18.60;99.90
13982;DHT22;7065;50.880;5.502;2023-05-27T10:57:17;18.70;99.90
13982;DHT22;7065;50.880;5.502;2023-05-27T10:59:53;18.80;99.90
13982;DHT22;7065;50.880;5.502;2023-05-27T11:02:20;18.90;99.90
13982;DHT22;7065;50.880;5.502;2023-05-27T11:04:48;19.00;99.90
13982;DHT22;7065;50.880;5.502;2023-05-27T11:07:18;19.00;99.90
13982;DHT22;7065;50.880;5.502;2023-05-27T11:09:49;19.00;99.90
13982;DHT22;7065;50.880;5.502;2023-05-27T11:12:16;19.10;99.90
13982;DHT22;7065;50.880;5.502;2023-05-27T11:14:43;19.10;99.90
13982;DHT22;7065;50.880;5.502;2023-05-27T11:17:12;19.20;99.90
13982;DHT22;7065;50.880;5.502;2023-05-27T11:19:41;19.20;99.90
13982;DHT22;7065;50.880;5.502;2023-05-27T11:22:08;19.30;99.90
13982;DHT22;7065;50.880;5.502;2023-05-27T11:24:35;19.40;99.90
13982;DHT22;7065;50.880;5.502;2023-05-27T11:29:33;19.50;99.90
13982;DHT22;7065;50.880;5.502;2023-05-27T11:31:59;19.50;99.90
13982;DHT22;7065;50.880;5.502;2023-05-27T11:34:27;19.60;99.90
13982;DHT22;7065;50.880;5.502;2023-05-27T11:36:54;19.70;99.90
13982;DHT22;7065;50.880;5.502;2023-05-27T11:39:21;19.70;99.90
13982;DHT22;7065;50.880;5.502;2023-05-27T11:41:51;19.80;99.90
13982;DHT22;7065;50.880;5.502;2023-05-27T11:44:18;19.80;99.90
13982;DHT22;7065;50.880;5.502;2023-05-27T11:46:46;19.90;99.90
13982;DHT22;7065;50.880;5.502;2023-05-27T11:49:13;19.90;99.90
13982;DHT22;7065;50.880;5.502;2023-05-27T11:51:42;19.90;99.90
13982;DHT22;7065;50.880;5.502;2023-05-27T11:54:18;20.00;99.90
13982;DHT22;7065;50.880;5.502;2023-05-27T11:56:44;20.10;99.90
13982;DHT22;7065;50.880;5.502;2023-05-27T11:59:10;20.20;99.90
13982;DHT22;7065;50.880;5.502;2023-05-27T12:01:36;20.20;99.90
13982;DHT22;7065;50.880;5.502;2023-05-27T12:04:02;20.20;99.90
13982;DHT22;7065;50.880;5.502;2023-05-27T12:06:28;20.30;99.90
13982;DHT22;7065;50.880;5.502;2023-05-27T12:08:53;20.30;99.90
13982;DHT22;7065;50.880;5.502;2023-05-27T12:11:19;20.40;99.90
13982;DHT22;7065;50.880;5.502;2023-05-27T12:13:45;20.50;99.90
13982;DHT22;7065;50.880;5.502;2023-05-27T12:16:11;20.50;99.90
13982;DHT22;7065;50.880;5.502;2023-05-27T12:18:37;20.60;99.90
13982;DHT22;7065;50.880;5.502;2023-05-27T12:21:04;20.60;99.90
13982;DHT22;7065;50.880;5.502;2023-05-27T12:23:30;20.60;99.90
13982;DHT22;7065;50.880;5.502;2023-05-27T12:25:55;20.70;99.90
13982;DHT22;7065;50.880;5.502;2023-05-27T12:28:21;20.70;99.90
13982;DHT22;7065;50.880;5.502;2023-05-27T12:30:47;20.70;99.90
13982;DHT22;7065;50.880;5.502;2023-05-27T12:33:13;20.80;99.90
13982;DHT22;7065;50.880;5.502;2023-05-27T12:35:39;20.80;99.90
13982;DHT22;7065;50.880;5.502;2023-05-27T12:38:06;20.90;99.90
13982;DHT22;7065;50.880;5.502;2023-05-27T12:40:32;21.00;99.90
13982;DHT22;7065;50.880;5.502;2023-05-27T12:42:58;21.00;99.90
13982;DHT22;7065;50.880;5.502;2023-05-27T12:45:24;21.10;99.90
13982;DHT22;7065;50.880;5.502;2023-05-27T12:47:52;21.00;99.90
13982;DHT22;7065;50.880;5.502;2023-05-27T12:50:18;21.00;99.90
13982;DHT22;7065;50.880;5.502;2023-05-27T12:52:45;21.10;99.90
13982;DHT22;7065;50.880;5.502;2023-05-27T12:55:17;21.20;99.90
13982;DHT22;7065;50.880;5.502;2023-05-27T12:57:44;21.30;99.90
13982;DHT22;7065;50.880;5.502;2023-05-27T13:00:11;21.40;99.90
13982;DHT22;7065;50.880;5.502;2023-05-27T13:02:37;21.50;99.90
13982;DHT22;7065;50.880;5.502;2023-05-27T13:05:04;21.60;99.90
13982;DHT22;7065;50.880;5.502;2023-05-27T13:07:31;21.60;99.90
13982;DHT22;7065;50.880;5.502;2023-05-27T13:10:03;21.70;99.90
13982;DHT22;7065;50.880;5.502;2023-05-27T13:12:30;21.80;99.90
13982;DHT22;7065;50.880;5.502;2023-05-27T13:14:58;21.80;99.90
13982;DHT22;7065;50.880;5.502;2023-05-27T13:17:24;21.90;99.90
13982;DHT22;7065;50.880;5.502;2023-05-27T13:19:50;21.90;99.90
13982;DHT22;7065;50.880;5.502;2023-05-27T13:22:16;22.00;99.90
13982;DHT22;7065;50.880;5.502;2023-05-27T13:24:42;22.10;99.90
13982;DHT22;7065;50.880;5.502;2023-05-27T13:27:08;22.10;99.90
13982;DHT22;7065;50.880;5.502;2023-05-27T13:29:34;22.20;99.90
13982;DHT22;7065;50.880;5.502;2023-05-27T13:32:01;22.30;99.90
13982;DHT22;7065;50.880;5.502;2023-05-27T13:34:27;22.40;99.90
13982;DHT22;7065;50.880;5.502;2023-05-27T13:36:55;22.40;99.90
13982;DHT22;7065;50.880;5.502;2023-05-27T13:39:21;22.50;99.90
13982;DHT22;7065;50.880;5.502;2023-05-27T13:41:47;22.50;99.90
13982;DHT22;7065;50.880;5.502;2023-05-27T13:44:13;22.50;99.90
13982;DHT22;7065;50.880;5.502;2023-05-27T13:46:38;22.30;99.90
13982;DHT22;7065;50.880;5.502;2023-05-27T13:49:04;22.30;99.90
13982;DHT22;7065;50.880;5.502;2023-05-27T13:51:30;22.20;99.90
13982;DHT22;7065;50.880;5.502;2023-05-27T13:53:56;22.40;99.90
13982;DHT22;7065;50.880;5.502;2023-05-27T13:56:22;22.60;99.90
13982;DHT22;7065;50.880;5.502;2023-05-27T13:58:49;22.60;99.90
13982;DHT22;7065;50.880;5.502;2023-05-27T14:01:15;22.40;99.90
13982;DHT22;7065;50.880;5.502;2023-05-27T14:03:41;22.50;99.90
13982;DHT22;7065;50.880;5.502;2023-05-27T14:06:06;22.60;99.90
13982;DHT22;7065;50.880;5.502;2023-05-27T14:08:33;22.60;99.90
13982;DHT22;7065;50.880;5.502;2023-05-27T14:10:59;22.70;99.90
13982;DHT22;7065;50.880;5.502;2023-05-27T14:13:24;22.70;99.90
13982;DHT22;7065;50.880;5.502;2023-05-27T14:15:51;22.70;99.90
13982;DHT22;7065;50.880;5.502;2023-05-27T14:18:17;22.60;99.90
13982;DHT22;7065;50.880;5.502;2023-05-27T14:20:43;22.80;99.90
13982;DHT22;7065;50.880;5.502;2023-05-27T14:23:08;22.80;99.90
13982;DHT22;7065;50.880;5.502;2023-05-27T14:25:37;22.90;99.90
13982;DHT22;7065;50.880;5.502;2023-05-27T14:28:02;23.00;99.90
13982;DHT22;7065;50.880;5.502;2023-05-27T14:30:29;22.90;99.90
13982;DHT22;7065;50.880;5.502;2023-05-27T14:33:03;22.90;99.90
13982;DHT22;7065;50.880;5.502;2023-05-27T14:35:35;22.90;99.90
13982;DHT22;7065;50.880;5.502;2023-05-27T14:38:01;23.10;99.90
13982;DHT22;7065;50.880;5.502;2023-05-27T14:40:27;23.30;99.90
13982;DHT22;7065;50.880;5.502;2023-05-27T14:42:52;23.30;99.90
13982;DHT22;7065;50.880;5.502;2023-05-27T14:45:18;23.40;99.90
13982;DHT22;7065;50.880;5.502;2023-05-27T14:47:46;23.20;99.90
13982;DHT22;7065;50.880;5.502;2023-05-27T14:50:12;23.10;99.90
13982;DHT22;7065;50.880;5.502;2023-05-27T14:52:37;23.10;99.90
13982;DHT22;7065;50.880;5.502;2023-05-27T14:55:04;23.40;99.90
13982;DHT22;7065;50.880;5.502;2023-05-27T14:57:31;23.40;99.90
13982;DHT22;7065;50.880;5.502;2023-05-27T15:00:00;23.60;99.90
13982;DHT22;7065;50.880;5.502;2023-05-27T15:02:26;23.80;99.90
13982;DHT22;7065;50.880;5.502;2023-05-27T15:04:51;23.80;99.90
13982;DHT22;7065;50.880;5.502;2023-05-27T15:07:17;23.70;99.90
13982;DHT22;7065;50.880;5.502;2023-05-27T15:09:44;23.60;99.90
13982;DHT22;7065;50.880;5.502;2023-05-27T15:12:10;23.80;99.90
13982;DHT22;7065;50.880;5.502;2023-05-27T15:14:36;24.00;99.90
13982;DHT22;7065;50.880;5.502;2023-05-27T15:17:02;24.30;99.90
13982;DHT22;7065;50.880;5.502;2023-05-27T15:19:31;24.50;99.90
13982;DHT22;7065;50.880;5.502;2023-05-27T15:21:56;24.70;99.90
13982;DHT22;7065;50.880;5.502;2023-05-27T15:24:22;24.70;99.90
13982;DHT22;7065;50.880;5.502;2023-05-27T15:26:48;25.10;99.90
13982;DHT22;7065;50.880;5.502;2023-05-27T15:29:13;25.50;99.90
13982;DHT22;7065;50.880;5.502;2023-05-27T15:31:39;25.60;99.90
13982;DHT22;7065;50.880;5.502;2023-05-27T15:34:05;26.10;99.90
13982;DHT22;7065;50.880;5.502;2023-05-27T15:36:31;27.20;99.90
13982;DHT22;7065;50.880;5.502;2023-05-27T15:38:57;27.50;99.70
13982;DHT22;7065;50.880;5.502;2023-05-27T15:41:23;27.90;99.30
13982;DHT22;7065;50.880;5.502;2023-05-27T15:43:48;28.80;99.10
13982;DHT22;7065;50.880;5.502;2023-05-27T15:46:14;28.50;96.50
13982;DHT22;7065;50.880;5.502;2023-05-27T15:48:41;28.40;96.90
13982;DHT22;7065;50.880;5.502;2023-05-27T15:51:07;29.50;95.20
13982;DHT22;7065;50.880;5.502;2023-05-27T15:53:33;28.70;96.30
13982;DHT22;7065;50.880;5.502;2023-05-27T15:55:58;28.60;95.10
13982;DHT22;7065;50.880;5.502;2023-05-27T15:58:25;29.90;94.60